Time;durP1;ratioP1;P1;durP2;ratioP2;P2;SDS_P1;SDS_P2;PMS_P1;PMS_P2;Temp;Humidity;BMP_temperature;BMP_pressure;BME280_temperature;BME280_humidity;BME280_pressure;Samples;Min_cycle;Max_cycle;Signal;HPM_P1;HPM_P2
2022/05/12 00:02:01;;;;;;;7.63;1.90;;;18.40;61.70;;;18.25;41.54;97028.56;4991563;28;20481;-50
2022/05/12 00:04:28;;;;;;;3.20;1.80;;;18.30;62.60;;;18.20;41.18;97035.19;4993291;28;20131;-48
2022/05/12 00:06:54;;;;;;;4.18;1.52;;;18.30;62.10;;;18.13;41.31;97032.97;4990953;28;20044;-49
2022/05/12 00:09:21;;;;;;;7.13;1.73;;;18.20;62.20;;;18.09;41.47;97028.00;4990948;28;20057;-50
2022/05/12 00:11:47;;;;;;;2.00;1.50;;;18.10;62.50;;;18.06;41.51;97030.88;4990464;28;20030;-51
2022/05/12 00:14:13;;;;;;;2.25;1.35;;;18.10;62.40;;;18.00;41.68;97036.63;4986621;28;20112;-48
2022/05/12 00:16:39;;;;;;;2.42;1.70;;;18.10;62.70;;;17.92;42.47;97038.03;4988453;28;20044;-49
2022/05/12 00:19:04;;;;;;;1.50;1.40;;;18.00;64.00;;;17.87;42.88;97050.00;4992309;28;20727;-49
2022/05/12 00:21:30;;;;;;;2.25;1.48;;;17.90;64.50;;;17.82;43.27;97047.66;4996577;28;20029;-50
2022/05/12 00:23:56;;;;;;;2.17;1.75;;;17.90;64.70;;;17.72;43.82;97039.44;5009093;28;20029;-50
2022/05/12 00:26:36;;;;;;;2.95;2.10;;;17.80;66.60;;;17.64;44.66;97041.84;4987665;28;20515;-51
2022/05/12 00:29:06;;;;;;;3.30;1.67;;;17.80;66.40;;;17.59;44.32;97043.97;4986594;28;20044;-47
2022/05/12 00:31:36;;;;;;;2.97;1.50;;;17.70;66.20;;;17.54;44.66;97051.44;4993204;28;20496;-51
2022/05/12 00:34:03;;;;;;;4.57;1.63;;;17.60;66.80;;;17.51;44.23;97055.16;4989882;28;20045;-49
2022/05/12 00:36:29;;;;;;;2.05;1.60;;;17.60;66.70;;;17.52;44.16;97056.88;4987228;28;20564;-50
2022/05/12 00:38:55;;;;;;;3.28;1.88;;;17.60;66.20;;;17.51;44.73;97052.47;4988148;28;20038;-50
2022/05/12 00:41:20;;;;;;;3.38;2.05;;;17.60;67.30;;;17.54;44.52;97065.59;4989655;28;20067;-52
2022/05/12 00:43:49;;;;;;;3.25;1.65;;;17.60;66.60;;;17.54;44.60;97052.28;4982466;28;20034;-50
2022/05/12 00:46:21;;;;;;;2.67;1.83;;;17.60;66.60;;;17.54;45.90;97059.44;4996595;28;20042;-50
2022/05/12 00:48:49;;;;;;;4.28;1.95;;;17.60;67.80;;;17.51;46.02;97062.31;4988746;28;20038;-50
2022/05/12 00:51:41;;;;;;;2.47;1.70;;;17.60;69.70;;;17.50;46.61;97056.13;4997674;28;20034;-50
2022/05/12 00:54:17;;;;;;;;;;;17.60;69.10;;;17.47;46.00;97051.00;4992449;28;20212;-50
2022/05/12 00:56:44;;;;;;;3.80;2.08;;;17.60;68.80;;;17.56;45.95;97061.00;4992090;28;19988;-50
2022/05/12 00:59:17;;;;;;;3.53;1.98;;;17.60;68.70;;;17.60;45.56;97056.31;4994561;28;20029;-50
2022/05/12 01:01:43;;;;;;;2.00;1.67;;;17.60;68.30;;;17.58;46.26;97060.91;4988399;28;20058;-49
2022/05/12 01:04:09;;;;;;;2.80;2.00;;;17.60;68.90;;;17.62;45.96;97064.22;4979827;28;20056;-50
2022/05/12 01:06:35;;;;;;;2.47;1.70;;;17.70;68.90;;;17.62;46.36;97061.56;4991148;28;20038;-50
2022/05/12 01:09:02;;;;;;;4.70;1.88;;;17.70;69.30;;;17.59;46.32;97064.47;4990403;28;20033;-49
2022/05/12 01:11:27;;;;;;;5.72;2.08;;;17.70;70.10;;;17.53;46.77;97063.03;4982004;28;20418;-48
2022/05/12 01:14:01;;;;;;;2.20;1.90;;;17.70;70.00;;;17.56;46.84;97058.34;4985695;28;20399;-49
2022/05/12 01:16:51;;;;;;;3.67;1.88;;;17.70;70.20;;;17.65;46.54;97067.50;4987336;28;20326;-48
2022/05/12 01:19:29;;;;;;;3.30;2.10;;;17.70;69.90;;;17.78;46.79;97062.16;4987408;28;20481;-50
2022/05/12 01:21:55;;;;;;;4.32;2.38;;;17.80;69.90;;;17.84;46.88;97068.91;4985988;28;20034;-51
2022/05/12 01:24:32;;;;;;;2.90;1.65;;;17.90;70.10;;;17.90;46.90;97077.31;4991508;28;20121;-51
2022/05/12 01:27:18;;;;;;;3.83;2.20;;;18.00;70.30;;;18.09;46.88;97071.53;4989236;28;20034;-49
2022/05/12 01:29:43;;;;;;;5.72;2.30;;;18.00;70.40;;;18.12;47.10;97086.44;4987497;28;20157;-48
2022/05/12 01:32:10;;;;;;;2.53;1.95;;;18.20;70.60;;;18.15;47.14;97091.56;4986323;28;20034;-50
2022/05/12 01:34:36;;;;;;;4.07;1.75;;;18.20;70.40;;;18.31;46.72;97083.31;4988108;28;20087;-52
2022/05/12 01:37:01;;;;;;;2.65;2.20;;;18.30;70.30;;;18.26;46.76;97085.44;4993087;28;20045;-48
2022/05/12 01:39:28;;;;;;;4.40;2.10;;;18.30;70.50;;;18.27;47.00;97090.69;4987566;28;20068;-50
2022/05/12 01:41:53;;;;;;;3.45;1.90;;;18.30;70.50;;;18.40;47.00;97095.97;4997561;28;20069;-50
2022/05/12 01:44:19;;;;;;;3.35;2.20;;;18.40;70.40;;;18.37;47.23;97100.69;5001859;28;20260;-47
2022/05/12 01:46:45;;;;;;;2.80;1.80;;;18.50;70.80;;;18.26;47.25;97102.31;4993077;28;20739;-50
2022/05/12 01:49:10;;;;;;;5.03;2.20;;;18.40;70.80;;;18.20;48.41;97110.78;5003221;28;20120;-48
2022/05/12 01:51:38;;;;;;;3.70;2.15;;;18.30;71.70;;;18.19;49.04;97109.06;4993730;28;20034;-49
2022/05/12 01:54:04;;;;;;;4.82;2.17;;;18.30;72.50;;;18.20;49.25;97115.28;4988819;28;20044;-52
2022/05/12 01:56:30;;;;;;;5.25;2.03;;;18.30;73.30;;;18.08;49.32;97117.84;4991697;28;20038;-51
2022/05/12 01:58:55;;;;;;;3.15;1.90;;;18.20;74.10;;;17.96;50.08;97126.72;4985541;28;20248;-50
2022/05/12 02:01:21;;;;;;;6.10;2.20;;;18.10;73.80;;;17.92;50.82;97125.22;4980851;28;20285;-52
2022/05/12 02:03:47;;;;;;;3.10;2.22;;;18.00;74.80;;;17.83;51.19;97123.19;4989573;28;20479;-51
2022/05/12 02:06:13;;;;;;;3.72;1.88;;;17.90;75.30;;;17.76;51.56;97130.75;4992169;28;20034;-51
2022/05/12 02:08:38;;;;;;;3.10;1.80;;;17.80;75.70;;;17.66;52.40;97127.06;4992250;28;20106;-48
2022/05/12 02:11:04;;;;;;;4.25;2.40;;;17.80;76.10;;;17.59;53.18;97131.97;4988344;28;20018;-49
2022/05/12 02:13:30;;;;;;;4.97;1.80;;;17.70;77.10;;;17.53;53.76;97138.56;4990332;28;20103;-52
2022/05/12 02:15:57;;;;;;;4.38;2.40;;;17.70;77.50;;;17.62;54.74;97134.41;4982350;28;20457;-50
2022/05/12 02:18:25;;;;;;;3.50;2.50;;;17.70;78.40;;;17.62;54.70;97141.53;4987129;28;20052;-51
2022/05/12 02:20:52;;;;;;;3.05;2.25;;;17.70;78.60;;;17.58;55.48;97146.22;4990224;28;20032;-48
2022/05/12 02:23:18;;;;;;;4.88;2.60;;;17.70;80.00;;;17.50;56.87;97148.59;4990986;28;20385;-49
2022/05/12 02:25:44;;;;;;;4.80;2.38;;;17.60;79.80;;;17.43;58.52;97152.63;4994280;28;20087;-48
2022/05/12 02:28:11;;;;;;;3.55;2.30;;;17.60;81.40;;;17.38;59.25;97147.63;4991678;28;20030;-49
2022/05/12 02:30:37;;;;;;;2.92;2.10;;;17.50;82.00;;;17.36;60.64;97150.38;4991085;28;20060;-49
2022/05/12 02:33:03;;;;;;;3.30;2.53;;;17.40;83.00;;;17.39;60.91;97153.78;4990720;28;20083;-47
2022/05/12 02:35:30;;;;;;;5.65;2.20;;;17.50;83.30;;;17.40;62.46;97150.19;4985480;28;20472;-48
2022/05/12 02:37:56;;;;;;;4.05;2.25;;;17.40;84.20;;;17.35;63.14;97164.69;4991449;28;20539;-47
2022/05/12 02:40:25;;;;;;;4.20;2.20;;;17.50;84.90;;;17.29;64.16;97167.75;4993436;28;20392;-50
2022/05/12 02:42:51;;;;;;;3.38;2.50;;;17.40;85.60;;;17.31;62.98;97170.31;4979818;28;20502;-48
2022/05/12 02:45:17;;;;;;;4.93;2.15;;;17.40;85.00;;;17.32;62.97;97167.53;4989291;28;20121;-48
2022/05/12 02:47:43;;;;;;;4.00;2.25;;;17.40;85.00;;;17.38;63.19;97165.44;4993861;28;20026;-48
2022/05/12 02:50:13;;;;;;;4.15;2.00;;;17.40;85.60;;;17.37;63.99;97169.88;4991904;28;21194;-47
2022/05/12 02:52:39;;;;;;;5.72;2.15;;;17.50;86.10;;;17.36;63.29;97174.38;4994258;28;20055;-47
2022/05/12 02:55:06;;;;;;;4.75;2.33;;;17.50;86.60;;;17.34;64.33;97178.94;4999100;28;20033;-49
2022/05/12 02:57:32;;;;;;;6.03;2.40;;;17.50;86.50;;;17.28;64.25;97165.19;4991108;28;20602;-47
2022/05/12 02:59:57;;;;;;;5.78;2.22;;;17.40;87.70;;;17.29;64.75;97175.75;4998209;28;20591;-48
2022/05/12 03:02:23;;;;;;;2.40;2.05;;;17.40;87.10;;;17.29;65.79;97180.22;4983928;28;20125;-48
2022/05/12 03:04:49;;;;;;;3.92;2.03;;;17.40;87.70;;;17.19;66.05;97174.66;4993180;28;20041;-50
2022/05/12 03:07:15;;;;;;;3.10;1.83;;;17.30;88.20;;;17.16;66.70;97185.53;4995064;28;20453;-49
2022/05/12 03:09:41;;;;;;;3.28;1.90;;;17.30;88.90;;;17.12;66.20;97184.88;4998021;28;20034;-48
2022/05/12 03:12:07;;;;;;;6.72;1.92;;;17.20;88.80;;;17.05;66.49;97180.91;4993835;28;20192;-47
2022/05/12 03:14:32;;;;;;;4.43;2.00;;;17.20;88.90;;;17.11;67.16;97190.31;4994275;28;20374;-47
2022/05/12 03:16:58;;;;;;;3.22;1.60;;;17.20;90.00;;;17.08;68.29;97199.34;4998167;28;20033;-47
2022/05/12 03:19:25;;;;;;;4.57;1.77;;;17.20;90.10;;;17.15;66.92;97199.81;4996131;28;20072;-48
2022/05/12 03:21:51;;;;;;;3.45;1.83;;;17.20;89.90;;;17.11;67.47;97201.81;4996738;28;20038;-48
2022/05/12 03:24:18;;;;;;;3.00;1.85;;;17.20;90.10;;;17.17;66.55;97203.22;4999385;28;20287;-47
2022/05/12 03:26:45;;;;;;;8.40;1.67;;;17.20;89.70;;;17.18;66.80;97197.78;4992205;28;20045;-48
2022/05/12 03:29:11;;;;;;;4.20;1.63;;;17.20;90.10;;;17.26;66.71;97205.25;4997151;28;20030;-47
2022/05/12 03:31:37;;;;;;;3.83;1.83;;;17.20;90.00;;;17.24;67.53;97214.31;4993204;28;20025;-47
2022/05/12 03:34:03;;;;;;;2.78;1.88;;;17.30;90.30;;;17.18;68.50;97218.25;4993492;28;20325;-49
2022/05/12 03:36:33;;;;;;;3.22;1.63;;;17.20;90.60;;;17.10;68.94;97216.09;4993836;28;20125;-51
2022/05/12 03:39:00;;;;;;;2.47;1.45;;;17.20;90.70;;;17.21;66.44;97217.19;4996591;28;20104;-49
2022/05/12 03:41:25;;;;;;;3.38;1.90;;;17.20;90.30;;;17.24;66.98;97217.84;4994549;28;20033;-49
2022/05/12 03:46:35;;;;;;;4.25;1.63;;;17.30;90.70;;;17.23;66.51;97218.81;5003064;28;20029;-47
2022/05/12 03:49:01;;;;;;;3.35;1.45;;;17.30;90.20;;;17.21;67.46;97218.06;5005946;28;20027;-46
2022/05/12 03:51:26;;;;;;;2.60;1.58;;;17.30;90.60;;;17.15;67.96;97234.44;4999861;28;20454;-47
2022/05/12 03:53:52;;;;;;;3.15;2.40;;;17.20;90.80;;;17.07;69.17;97226.97;5007870;28;20045;-49
2022/05/12 03:56:18;;;;;;;5.30;1.92;;;17.20;91.30;;;17.00;70.69;97240.78;5003545;28;20347;-50
2022/05/12 03:58:44;;;;;;;2.47;1.70;;;17.10;91.90;;;17.02;68.55;97244.22;5003446;28;20382;-46
2022/05/12 04:01:10;;;;;;;1.40;1.30;;;17.10;91.30;;;16.93;70.88;97238.50;5006802;28;20034;-48
2022/05/12 04:03:37;;;;;;;3.72;1.40;;;17.00;92.00;;;16.88;71.93;97253.09;4998525;28;20062;-47
2022/05/12 04:06:05;;;;;;;2.10;1.50;;;17.00;92.40;;;16.77;71.55;97256.41;4994068;28;20030;-47
2022/05/12 04:08:31;;;;;;;2.25;1.60;;;17.00;92.30;;;16.75;71.95;97266.31;5000027;28;20026;-48
2022/05/12 04:10:57;;;;;;;2.58;1.60;;;16.90;92.60;;;16.69;71.43;97267.56;5005288;28;20513;-50
2022/05/12 04:13:24;;;;;;;5.20;1.40;;;16.80;92.50;;;16.70;70.68;97263.94;5003427;28;20116;-48
2022/05/12 04:15:50;;;;;;;3.85;1.55;;;16.80;92.40;;;16.72;71.11;97274.50;5004941;28;20050;-48
2022/05/12 04:18:16;;;;;;;4.30;1.40;;;16.80;92.30;;;16.71;71.57;97278.97;4992565;28;20037;-47
2022/05/12 04:20:42;;;;;;;3.35;1.42;;;16.80;92.80;;;16.71;72.08;97284.28;4993903;28;20398;-46
2022/05/12 04:23:08;;;;;;;3.40;1.52;;;16.80;93.00;;;16.66;72.43;97286.38;5001460;28;20037;-52
2022/05/12 04:25:34;;;;;;;1.60;1.40;;;16.80;93.10;;;16.65;72.60;97295.31;5006583;28;20034;-50
2022/05/12 04:28:01;;;;;;;2.42;1.60;;;16.80;93.30;;;16.65;72.08;97291.81;5002792;28;20042;-49
2022/05/12 04:30:27;;;;;;;4.15;1.30;;;16.80;93.40;;;16.68;72.10;97291.63;5000573;28;20038;-48
2022/05/12 04:32:54;;;;;;;6.93;1.38;;;16.80;93.30;;;16.68;72.25;97295.13;4999311;28;20025;-48
2022/05/12 04:35:20;;;;;;;1.85;1.10;;;16.80;93.40;;;16.70;72.47;97303.88;5000020;28;20042;-48
2022/05/12 04:37:48;;;;;;;1.50;1.17;;;16.80;93.60;;;16.72;72.78;97309.09;5053195;23;20450;-46
2022/05/12 04:40:30;;;;;;;5.13;1.40;;;16.80;93.80;;;16.76;72.24;97315.94;5051752;28;20031;-43
2022/05/12 04:42:59;;;;;;;3.97;1.70;;;16.80;94.00;;;16.77;72.94;97299.03;5055972;28;20121;-45
2022/05/12 04:45:28;;;;;;;2.22;1.20;;;16.90;94.00;;;16.85;73.00;97318.06;5051765;28;20029;-43
2022/05/12 04:47:55;;;;;;;1.77;1.33;;;16.90;94.10;;;16.82;73.60;97312.91;5059068;28;20082;-47
2022/05/12 04:50:29;;;;;;;1.60;1.13;;;16.90;94.40;;;16.86;73.82;97319.78;5052066;28;20028;-46
2022/05/12 04:52:54;;;;;;;2.55;1.35;;;17.00;94.50;;;16.88;73.85;97328.50;5058656;28;20032;-44
2022/05/12 04:55:20;;;;;;;2.50;1.30;;;17.00;94.60;;;16.91;74.30;97333.66;5051241;28;20439;-44
2022/05/12 04:57:56;;;;;;;1.23;1.05;;;17.00;94.90;;;16.96;74.42;97333.38;5050120;28;20029;-44
2022/05/12 05:00:40;;;;;;;3.75;1.48;;;17.10;95.00;;;17.07;74.12;97340.69;5054085;28;20063;-44
2022/05/12 05:03:08;;;;;;;1.48;1.25;;;17.20;95.10;;;17.14;74.47;97340.19;5053054;28;20036;-45
2022/05/12 05:05:34;;;;;;;1.70;1.20;;;17.30;95.20;;;17.28;74.15;97347.28;5048267;28;20057;-46
2022/05/12 05:08:00;;;;;;;1.95;1.13;;;17.40;95.20;;;17.54;73.31;97352.72;5058477;28;20103;-44
2022/05/12 05:10:26;;;;;;;1.67;1.30;;;17.50;95.10;;;17.78;73.00;97355.56;5052423;28;20386;-43
2022/05/12 05:12:53;;;;;;;5.80;1.35;;;17.80;95.10;;;17.99;72.09;97363.97;5048954;28;20488;-47
2022/05/12 05:15:20;;;;;;;3.47;1.83;;;18.10;94.90;;;18.20;71.09;97359.00;5043325;28;20565;-48
2022/05/12 05:17:46;;;;;;;3.58;1.38;;;18.30;94.70;;;18.39;69.78;97358.56;5049304;28;20045;-45
2022/05/12 05:20:18;;;;;;;2.35;1.40;;;18.50;94.20;;;18.56;69.40;97361.91;5051151;28;20511;-48
2022/05/12 05:22:45;;;;;;;3.65;1.40;;;18.60;94.20;;;18.80;68.50;97373.50;5047942;28;20396;-46
2022/05/12 05:25:11;;;;;;;2.25;1.30;;;18.80;94.10;;;19.01;67.44;97381.84;5051757;28;20044;-45
2022/05/12 05:27:37;;;;;;;3.40;1.58;;;19.10;93.60;;;19.24;66.49;97380.19;5047189;28;20024;-44
2022/05/12 05:30:07;;;;;;;3.67;1.50;;;19.20;93.30;;;19.42;65.72;97390.53;5049004;28;20082;-46
2022/05/12 05:32:32;;;;;;;2.25;1.58;;;19.40;93.20;;;19.49;65.58;97388.25;5053324;28;20859;-46
2022/05/12 05:34:58;;;;;;;2.70;1.48;;;19.50;93.00;;;19.67;65.84;97399.41;5046816;28;20045;-46
2022/05/12 05:37:24;;;;;;;3.15;1.70;;;19.60;93.10;;;19.49;65.21;97399.81;5047876;28;20036;-46
2022/05/12 05:39:50;;;;;;;1.83;1.25;;;19.60;92.90;;;19.42;68.47;97411.94;5053278;28;20045;-47
2022/05/12 05:42:18;;;;;;;2.05;1.50;;;19.50;93.80;;;19.40;67.11;97417.38;5053525;28;20037;-47
2022/05/12 05:44:44;;;;;;;2.28;1.20;;;19.50;93.60;;;19.36;69.69;97410.56;5050578;28;20068;-47
2022/05/12 05:47:10;;;;;;;4.47;1.40;;;19.50;94.30;;;19.39;68.75;97417.50;5044641;28;20043;-44
2022/05/12 05:49:36;;;;;;;3.08;1.17;;;19.50;94.00;;;19.37;65.98;97419.41;5056075;28;20025;-45
2022/05/12 05:54:48;;;;;;;2.28;1.35;;;19.60;93.90;;;19.36;68.83;97436.41;5048806;28;20046;-47
2022/05/12 05:57:14;;;;;;;2.00;1.42;;;19.50;93.80;;;19.29;67.57;97424.47;5052097;28;20084;-47
2022/05/12 05:59:40;;;;;;;1.77;1.40;;;19.50;93.50;;;19.39;69.54;97437.06;5053247;28;20527;-47
2022/05/12 06:02:06;;;;;;;3.38;1.70;;;19.50;94.40;;;19.28;68.96;97439.66;5047853;28;20067;-44
2022/05/12 06:04:32;;;;;;;4.22;1.60;;;19.50;94.00;;;19.25;68.50;97440.72;5050328;28;20083;-44
2022/05/12 06:06:58;;;;;;;4.95;1.38;;;19.40;94.30;;;19.05;69.12;97441.28;5053964;28;20094;-47
2022/05/12 06:09:28;;;;;;;6.43;1.60;;;19.20;94.70;;;18.93;66.27;97440.31;5053456;28;20024;-45
2022/05/12 06:11:54;;;;;;;1.77;1.20;;;19.10;93.80;;;18.94;68.54;97436.69;5053133;28;20025;-44
2022/05/12 06:14:19;;;;;;;3.00;1.50;;;19.10;94.10;;;19.06;69.51;97443.00;5056474;28;20401;-44
2022/05/12 06:16:45;;;;;;;3.63;1.50;;;19.20;94.70;;;19.16;66.77;97451.22;5044800;28;20071;-43
2022/05/12 06:19:11;;;;;;;4.22;2.08;;;19.30;94.10;;;19.26;67.65;97452.28;5050023;28;20036;-47
2022/05/12 06:21:37;;;;;;;3.42;1.60;;;19.40;94.20;;;19.34;67.29;97446.38;5052032;28;21031;-47
2022/05/12 06:24:04;;;;;;;5.75;1.55;;;19.50;93.80;;;19.44;64.19;97452.78;5054964;28;20067;-47
2022/05/12 06:26:29;;;;;;;2.47;1.30;;;19.70;93.00;;;19.69;65.61;97456.34;5043282;28;20119;-44
2022/05/12 06:28:57;;;;;;;2.63;1.30;;;19.90;93.40;;;19.90;63.60;97459.28;5045689;28;20033;-47
2022/05/12 06:31:29;;;;;;;1.92;1.30;;;20.10;92.70;;;20.24;62.23;97454.09;5048520;28;20109;-45
2022/05/12 06:33:57;;;;;;;4.13;1.48;;;20.40;92.50;;;20.32;62.19;97457.06;5052399;28;20039;-45
2022/05/12 06:36:23;;;;;;;2.85;1.42;;;20.50;92.40;;;20.40;60.45;97455.50;5054286;28;20033;-47
2022/05/12 06:38:49;;;;;;;1.27;1.10;;;20.60;92.00;;;20.54;60.42;97461.63;5044849;28;20771;-42
2022/05/12 06:41:15;;;;;;;3.30;1.42;;;20.60;91.60;;;20.43;61.89;97473.16;5053983;28;20037;-46
2022/05/12 06:43:45;;;;;;;3.55;1.30;;;20.70;92.00;;;20.24;61.73;97462.97;5050232;28;20061;-47
2022/05/12 06:46:16;;;;;;;2.97;1.50;;;20.50;91.90;;;20.32;65.42;97478.47;5051940;28;20713;-45
2022/05/12 06:48:47;;;;;;;2.63;1.40;;;20.50;93.20;;;20.19;63.75;97478.56;5050571;28;20381;-47
2022/05/12 06:51:14;;;;;;;3.53;1.60;;;20.40;92.50;;;20.15;64.72;97482.41;5048910;28;20033;-45
2022/05/12 06:53:40;;;;;;;2.33;1.20;;;20.40;92.90;;;20.10;66.08;97489.91;5052142;28;20041;-47
2022/05/12 06:56:07;;;;;;;2.65;1.40;;;20.30;93.30;;;20.08;66.21;97487.38;5046496;28;20106;-44
2022/05/12 06:58:36;;;;;;;11.27;1.83;;;20.20;93.50;;;19.93;67.51;97483.16;5046737;28;20032;-47
2022/05/12 07:01:04;;;;;;;4.10;1.60;;;20.10;94.20;;;19.79;67.31;97484.16;5048895;28;20111;-44
2022/05/12 07:03:30;;;;;;;2.13;1.10;;;20.00;94.10;;;19.67;65.79;97480.53;5033407;28;20123;-44
2022/05/12 07:05:57;;;;;;;3.22;1.50;;;19.80;93.50;;;19.61;67.82;97489.00;5053614;28;20388;-43
2022/05/12 07:08:25;;;;;;;3.70;1.50;;;19.70;94.30;;;19.56;67.38;97496.50;5053984;28;20506;-48
2022/05/12 07:10:51;;;;;;;2.53;1.20;;;19.70;94.30;;;19.51;69.47;97494.16;5049403;28;20041;-44
2022/05/12 07:13:20;;;;;;;2.05;1.40;;;19.60;94.70;;;19.51;68.12;97499.50;5055180;28;20047;-43
2022/05/12 07:15:50;;;;;;;1.70;1.30;;;19.60;94.70;;;19.58;67.22;97507.97;5054341;28;20060;-46
2022/05/12 07:18:20;;;;;;;2.20;1.52;;;19.60;94.40;;;19.53;66.29;97500.25;5055065;28;20029;-46
2022/05/12 07:28:59;;;;;;;1.98;1.45;;;19.50;96.80;;;19.16;68.91;97492.16;5059906;28;20039;-43
2022/05/12 07:31:25;;;;;;;5.63;1.40;;;19.50;95.70;;;19.07;68.07;97479.44;5055351;28;20048;-44
2022/05/12 07:33:51;;;;;;;2.45;1.05;;;19.40;95.00;;;19.22;71.28;97506.91;5058093;28;20041;-45
2022/05/12 07:36:25;;;;;;;3.20;1.50;;;19.40;96.00;;;19.28;74.03;97522.53;5053411;28;20776;-44
2022/05/12 07:38:52;;;;;;;3.53;1.20;;;19.40;96.90;;;19.27;73.29;97528.84;5053459;28;20213;-46
2022/05/12 07:41:19;;;;;;;5.18;1.60;;;19.50;96.50;;;19.31;70.56;97530.34;5053795;28;20109;-44
2022/05/12 07:43:46;;;;;;;2.45;1.20;;;19.50;96.70;;;19.39;73.67;97527.13;5058625;28;20051;-42
2022/05/12 07:46:16;;;;;;;3.28;1.30;;;19.60;97.00;;;19.44;71.06;97531.19;5054253;28;20380;-43
2022/05/12 07:48:42;;;;;;;4.00;1.25;;;19.60;95.80;;;19.48;73.84;97520.28;5056883;28;20032;-46
2022/05/12 07:51:09;;;;;;;1.92;1.17;;;19.70;97.10;;;19.47;67.36;97535.47;5057847;28;20027;-46
2022/05/12 07:53:37;;;;;;;4.55;1.58;;;19.70;95.10;;;19.59;71.16;97533.72;5053115;28;20139;-45
2022/05/12 07:56:04;;;;;;;3.00;1.40;;;19.80;96.10;;;19.63;70.81;97533.41;5053467;28;20118;-46
2022/05/12 07:58:30;;;;;;;2.05;1.30;;;19.80;96.00;;;19.80;71.98;97536.72;5049461;28;20043;-46
2022/05/12 08:00:57;;;;;;;4.40;1.30;;;19.90;96.60;;;19.73;69.96;97535.44;5058610;28;20066;-43
2022/05/12 08:03:24;;;;;;;8.68;1.40;;;20.00;96.20;;;19.91;69.63;97539.47;5052590;28;20071;-43
2022/05/12 08:05:50;;;;;;;2.63;1.48;;;20.10;96.00;;;20.03;67.59;97522.50;5056054;28;20448;-46
2022/05/12 08:08:16;;;;;;;2.15;1.17;;;20.20;95.50;;;20.32;64.01;97530.22;5056786;28;20108;-45
2022/05/12 08:10:42;;;;;;;2.72;1.17;;;20.50;94.40;;;20.58;65.00;97522.03;5044897;28;20062;-45
2022/05/12 08:13:14;;;;;;;4.15;1.38;;;20.80;94.20;;;20.97;64.85;97533.41;5053495;28;20044;-43
2022/05/12 08:15:42;;;;;;;3.25;1.33;;;21.10;94.80;;;21.40;59.81;97534.56;5050177;28;20544;-46
2022/05/12 08:18:08;;;;;;;1.83;1.17;;;21.50;93.60;;;21.67;58.99;97536.91;5059169;28;20036;-45
2022/05/12 08:20:35;;;;;;;2.15;1.30;;;21.70;93.10;;;21.84;58.52;97536.41;5052792;28;20124;-42
2022/05/12 08:23:01;;;;;;;1.55;1.45;;;21.90;92.20;;;21.69;56.38;97538.47;5058418;28;20035;-47
2022/05/12 08:25:29;;;;;;;1.55;1.10;;;21.80;91.10;;;21.76;63.86;97546.06;5055992;28;20032;-47
2022/05/12 08:27:55;;;;;;;4.70;1.60;;;21.80;93.20;;;21.69;63.74;97537.63;5059360;28;20025;-46
2022/05/12 08:30:21;;;;;;;4.05;1.38;;;21.80;93.60;;;21.42;59.70;97544.19;5049688;28;20055;-43
2022/05/12 08:32:47;;;;;;;4.75;1.40;;;21.60;92.30;;;21.12;61.15;97537.59;5053470;28;20032;-45
2022/05/12 08:35:14;;;;;;;7.65;1.92;;;21.40;92.30;;;20.78;59.43;97537.50;5054299;28;20044;-41
2022/05/12 08:37:40;;;;;;;2.47;1.50;;;21.10;92.30;;;20.79;60.78;97541.88;5053222;28;20112;-47
2022/05/12 08:40:13;;;;;;;9.10;1.70;;;21.00;92.60;;;20.75;65.28;97535.03;5053756;28;20104;-44
2022/05/12 08:42:45;;;;;;;1.75;1.23;;;20.90;94.10;;;20.72;63.36;97537.94;5049071;28;20084;-45
2022/05/12 08:45:16;;;;;;;1.95;1.45;;;20.90;93.80;;;20.76;60.21;97549.28;5048206;28;20071;-46
2022/05/12 08:47:45;;;;;;;2.10;1.50;;;20.90;92.80;;;20.85;61.22;97545.06;5042253;28;20028;-47
2022/05/12 08:50:26;;;;;;;3.63;1.60;;;21.00;93.60;;;20.67;64.46;97550.00;5019645;28;20033;-46
2022/05/12 08:53:05;;;;;;;2.85;2.03;;;20.90;93.60;;;20.45;62.05;97561.44;5041573;28;20424;-47
2022/05/12 08:55:46;;;;;;;2.10;1.67;;;20.70;92.80;;;20.56;62.14;97556.13;5048156;28;20414;-47
2022/05/12 08:58:25;;;;;;;4.65;1.80;;;20.70;93.30;;;20.84;62.16;97551.41;5057196;28;20105;-46
2022/05/12 09:01:13;;;;;;;5.72;2.03;;;20.90;93.80;;;21.13;57.67;97552.69;5052973;28;20040;-43
2022/05/12 09:04:16;;;;;;;2.88;1.98;;;21.30;91.90;;;21.42;59.09;97556.75;5050724;28;20045;-47
2022/05/12 09:07:07;;;;;;;4.27;2.37;;;21.50;92.10;;;21.52;59.48;97558.63;5054837;28;20036;-47
2022/05/12 09:10:12;;;;;;;2.57;1.80;;;21.60;92.50;;;21.65;59.40;97552.28;5052733;28;20033;-47
2022/05/12 09:12:49;;;;;;;3.50;1.90;;;21.70;92.60;;;21.74;59.27;97548.88;5029202;28;20040;-44
2022/05/12 09:15:28;;;;;;;3.65;2.17;;;21.90;92.10;;;21.80;56.85;97548.34;5044488;28;20127;-46
2022/05/12 09:18:06;;;;;;;2.10;1.80;;;22.00;91.40;;;21.85;57.69;97548.84;5051744;28;20047;-46
2022/05/12 09:20:35;;;;;;;11.05;2.00;;;22.00;91.00;;;21.84;55.71;97547.16;5044957;28;20476;-45
2022/05/12 09:23:06;;;;;;;3.80;2.25;;;22.00;90.90;;;22.00;54.39;97553.94;5045213;28;20043;-46
2022/05/12 09:25:47;;;;;;;2.85;2.20;;;22.20;90.50;;;22.03;54.87;97549.19;5041163;28;20142;-44
2022/05/12 09:28:34;;;;;;;6.00;2.40;;;22.20;90.20;;;22.12;52.52;97542.22;5030221;28;20028;-45
2022/05/12 09:31:19;;;;;;;6.95;2.30;;;22.40;89.00;;;22.26;52.84;97551.84;5043405;28;20028;-44
2022/05/12 09:33:54;;;;;;;5.63;2.40;;;22.50;87.80;;;22.28;52.77;97548.06;5042348;28;20114;-42
2022/05/12 09:36:23;;;;;;;3.85;2.38;;;22.50;88.50;;;22.19;52.70;97542.56;5022116;28;20416;-46
2022/05/12 09:38:54;;;;;;;3.42;2.10;;;22.40;88.00;;;22.33;53.31;97539.63;5042629;28;20040;-47
2022/05/12 09:41:31;;;;;;;2.67;2.17;;;22.50;89.50;;;22.53;53.20;97545.19;5040342;28;21180;-46
2022/05/12 09:43:57;;;;;;;3.20;1.92;;;22.70;89.80;;;22.75;53.85;97555.00;5024706;28;20087;-43
2022/05/12 09:46:30;;;;;;;5.93;2.20;;;22.90;89.40;;;22.64;53.15;97539.75;5039300;28;20029;-45
2022/05/12 09:49:31;;;;;;;4.47;2.00;;;23.00;88.70;;;22.97;54.72;97549.50;5045412;28;20875;-44
2022/05/12 09:51:57;;;;;;;3.25;2.10;;;23.20;90.20;;;22.98;53.87;97543.13;5041456;28;20025;-46
2022/05/12 09:54:30;;;;;;;4.55;2.13;;;23.30;90.10;;;22.99;55.28;97542.16;5021375;28;20036;-46
2022/05/12 09:57:02;;;;;;;3.30;1.92;;;23.30;90.00;;;23.00;52.59;97532.25;5046393;28;20111;-46
2022/05/12 09:59:30;;;;;;;;;;;23.30;88.00;;;23.01;52.75;97537.50;5015699;28;20048;-45
2022/05/12 10:02:04;;;;;;;3.55;2.00;;;23.10;89.90;;;22.83;56.57;97528.31;5036133;28;19921;-40
2022/05/12 10:10:28;;;;;;;5.95;2.03;;;22.70;91.40;;;22.41;57.82;97523.72;5038604;28;20043;-44
2022/05/12 10:13:04;;;;;;;7.28;2.42;;;22.50;91.00;;;22.49;56.72;97523.94;5042079;28;20036;-45
2022/05/12 10:15:35;;;;;;;4.55;2.08;;;22.60;91.30;;;22.55;53.45;97525.25;5036685;28;20557;-45
2022/05/12 10:18:30;;;;;;;3.33;1.90;;;22.90;89.10;;;22.85;53.94;97526.34;5042297;28;20107;-46
2022/05/12 10:21:24;;;;;;;2.80;2.00;;;23.00;88.90;;;23.15;53.44;97525.59;5020399;28;20037;-43
2022/05/12 10:24:11;;;;;;;3.55;2.35;;;23.30;89.50;;;23.27;51.17;97517.44;5017901;28;20052;-42
2022/05/12 10:26:44;;;;;;;6.63;2.20;;;23.60;86.80;;;23.60;51.82;97511.78;5047586;28;20028;-45
2022/05/12 10:29:37;;;;;;;5.40;2.65;;;23.80;87.70;;;23.80;54.67;97514.59;5028458;28;20511;-47
2022/05/12 10:32:07;;;;;;;6.30;2.28;;;23.90;90.60;;;23.73;49.94;97505.31;5042494;28;20043;-46
2022/05/12 10:35:04;;;;;;;4.22;2.10;;;24.00;86.90;;;23.40;50.21;97501.91;5032703;28;20044;-46
2022/05/12 10:37:53;;;;;;;7.32;2.47;;;23.80;84.10;;;23.17;53.64;97502.09;5022065;23;20163;-44
2022/05/12 10:40:45;;;;;;;3.63;2.97;;;23.40;87.40;;;23.03;52.20;97503.25;5004049;28;20042;-43
2022/05/12 10:43:22;;;;;;;4.63;2.88;;;23.20;88.60;;;22.98;50.88;97497.41;5006936;28;20038;-45
2022/05/12 10:46:11;;;;;;;3.47;2.28;;;23.10;85.90;;;23.12;52.24;97490.88;4986065;28;20345;-46
2022/05/12 10:49:21;;;;;;;5.78;2.70;;;23.20;87.80;;;23.36;50.17;97489.72;4991000;28;20026;-48
2022/05/12 10:52:02;;;;;;;4.93;2.50;;;23.40;86.10;;;23.44;50.84;97493.44;4985865;28;20026;-45